createdAt,value
2019-04-19T00:01:02.732Z,96.40
2019-04-19T00:03:46.856Z,96.50
2019-04-19T00:07:09.086Z,96.00
2019-04-19T00:09:56.879Z,96.50
2019-04-19T00:12:47.038Z,96.40
2019-04-19T00:15:28.792Z,96.60
2019-04-19T00:18:19.658Z,96.70
2019-04-19T00:21:24.583Z,97.10
2019-04-19T00:23:57.880Z,97.20
2019-04-19T00:26:46.714Z,97.20
2019-04-19T00:29:44.930Z,97.30
2019-04-19T00:32:38.464Z,97.50
2019-04-19T00:35:13.717Z,97.80
2019-04-19T00:38:06.965Z,98.00
2019-04-19T00:41:14.150Z,98.10
2019-04-19T00:44:25.391Z,98.10
2019-04-19T00:47:13.184Z,97.80
2019-04-19T00:49:59.194Z,97.80
2019-04-19T00:52:52.226Z,97.70
2019-04-19T00:55:35.095Z,98.00
2019-04-19T00:58:18.425Z,98.10
2019-04-19T01:01:06.122Z,98.10
2019-04-19T01:03:52.248Z,98.30
2019-04-19T01:06:47.177Z,98.20
2019-04-19T01:09:42.344Z,98.60
2019-04-19T01:12:30.551Z,98.80
2019-04-19T01:15:19.718Z,98.60
2019-04-19T01:18:11.846Z,98.60
2019-04-19T01:20:48.018Z,98.50
2019-04-19T01:23:42.204Z,98.60
2019-04-19T01:26:25.684Z,98.70
2019-04-19T01:29:17.108Z,98.60
2019-04-19T01:32:08.723Z,99.00
2019-04-19T01:35:02.503Z,98.90
2019-04-19T01:37:48.354Z,98.80
2019-04-19T01:40:53.797Z,99.00
2019-04-19T01:43:40.898Z,99.10
2019-04-19T01:46:49.154Z,99.20
2019-04-19T01:49:49.149Z,99.20
2019-04-19T01:52:47.305Z,99.00
2019-04-19T01:55:18.610Z,99.10
2019-04-19T01:58:06.135Z,99.10
2019-04-19T02:00:53.573Z,99.00
2019-04-19T02:03:46.011Z,99.30
2019-04-19T02:06:34.567Z,99.40
2019-04-19T02:09:30.346Z,99.60
2019-04-19T02:12:25.098Z,99.60
2019-04-19T02:15:03.864Z,99.60
2019-04-19T02:17:49.568Z,99.50
2019-04-19T02:20:43.377Z,99.50
2019-04-19T02:23:26.045Z,99.20
2019-04-19T02:26:18.205Z,99.20
2019-04-19T02:29:09.163Z,99.30
2019-04-19T02:35:09.870Z,99.40
2019-04-19T02:38:01.506Z,99.10
2019-04-19T02:43:45.630Z,99.10
2019-04-19T02:46:36.413Z,99.20
2019-04-19T02:49:28.427Z,99.00
2019-04-19T02:52:09.640Z,99.30
2019-04-19T02:55:10.253Z,99.60
2019-04-19T03:01:28.100Z,99.40
2019-04-19T03:04:26.552Z,99.40
2019-04-19T03:06:43.638Z,99.50
2019-04-19T03:09:32.839Z,99.60
2019-04-19T03:12:37.038Z,99.60
2019-04-19T03:15:18.963Z,99.90
2019-04-19T03:18:19.211Z,99.80
2019-04-19T03:21:00.451Z,99.90
2019-04-19T03:23:55.027Z,99.90
2019-04-19T03:26:42.453Z,99.90
2019-04-19T03:29:26.834Z,99.90
2019-04-19T03:32:48.520Z,99.90
2019-04-19T03:35:06.558Z,99.90
2019-04-19T03:38:02.697Z,99.90
2019-04-19T03:40:51.958Z,99.90
2019-04-19T03:43:58.423Z,99.90
2019-04-19T03:46:40.497Z,99.90
2019-04-19T03:49:32.328Z,99.90
2019-04-19T03:52:18.720Z,99.90
2019-04-19T03:55:06.873Z,99.90
2019-04-19T03:57:47.945Z,99.90
2019-04-19T04:00:24.462Z,99.90
2019-04-19T04:03:19.580Z,99.90
2019-04-19T04:06:02.094Z,99.90
2019-04-19T04:09:00.390Z,99.90
2019-04-19T04:12:20.802Z,99.90
2019-04-19T04:15:23.639Z,99.90
2019-04-19T04:18:04.759Z,99.90
2019-04-19T04:20:56.191Z,99.90
2019-04-19T04:23:47.452Z,99.90
2019-04-19T04:26:42.834Z,99.90
2019-04-19T04:29:31.762Z,99.90
2019-04-19T04:32:19.835Z,99.90
2019-04-19T04:35:23.132Z,99.90
2019-04-19T04:38:02.640Z,99.90
2019-04-19T04:40:40.796Z,99.90
2019-04-19T04:43:38.665Z,99.90
2019-04-19T04:46:59.128Z,99.90
2019-04-19T04:50:24.081Z,99.90
2019-04-19T04:52:58.122Z,99.90
2019-04-19T04:55:58.114Z,99.90
2019-04-19T04:58:44.462Z,99.90
2019-04-19T05:01:43.627Z,99.90
2019-04-19T05:04:35.358Z,99.90
2019-04-19T05:07:28.749Z,99.90
2019-04-19T05:10:17.471Z,99.90
2019-04-19T05:15:58.089Z,99.90
2019-04-19T05:18:47.042Z,99.90
2019-04-19T05:21:37.275Z,99.90
2019-04-19T05:24:27.665Z,99.90
2019-04-19T05:27:24.735Z,99.90
2019-04-19T05:29:51.636Z,99.90
2019-04-19T05:32:43.546Z,99.90
2019-04-19T05:35:54.281Z,99.90
2019-04-19T05:39:04.873Z,99.90
2019-04-19T05:42:09.227Z,99.90
2019-04-19T05:45:24.639Z,99.90
2019-04-19T05:47:49.046Z,99.90
2019-04-19T05:50:44.788Z,99.90
2019-04-19T05:53:29.914Z,99.90
2019-04-19T05:56:07.428Z,99.80
2019-04-19T05:59:05.854Z,99.50
2019-04-19T06:01:59.023Z,99.30
2019-04-19T06:05:00.953Z,99.40
2019-04-19T06:07:39.096Z,99.10
2019-04-19T06:10:15.793Z,98.90
2019-04-19T06:13:08.958Z,98.60
2019-04-19T06:16:15.481Z,98.40
2019-04-19T06:19:08.684Z,98.30
2019-04-19T06:21:54.875Z,97.80
2019-04-19T06:24:47.136Z,97.50
2019-04-19T06:27:45.313Z,97.50
2019-04-19T06:30:27.757Z,97.20
2019-04-19T06:33:17.141Z,96.80
2019-04-19T06:35:51.920Z,96.40
2019-04-19T06:38:35.893Z,96.10
2019-04-19T06:41:26.745Z,95.90
2019-04-19T06:44:33.559Z,95.90
2019-04-19T06:47:15.773Z,95.30
2019-04-19T06:49:54.579Z,94.90
2019-04-19T06:52:42.769Z,94.70
2019-04-19T06:55:36.037Z,93.90
2019-04-19T06:58:24.926Z,93.60
2019-04-19T07:01:23.487Z,93.10
2019-04-19T07:03:59.964Z,93.40
2019-04-19T07:07:11.960Z,92.60
2019-04-19T07:10:04.609Z,92.40
2019-04-19T07:12:45.504Z,92.10
2019-04-19T07:15:48.568Z,92.00
2019-04-19T07:18:26.936Z,91.50
2019-04-19T07:21:19.958Z,91.50
2019-04-19T07:24:14.929Z,91.50
2019-04-19T07:26:56.626Z,90.10
2019-04-19T07:29:25.511Z,88.50
2019-04-19T07:32:17.686Z,86.20
2019-04-19T07:35:21.542Z,85.20
2019-04-19T07:38:25.193Z,83.70
2019-04-19T07:41:05.639Z,82.40
2019-04-19T07:44:16.487Z,80.00
2019-04-19T07:47:37.840Z,78.60
2019-04-19T07:50:24.378Z,79.60
2019-04-19T07:53:08.323Z,76.00
2019-04-19T07:56:07.909Z,73.40
2019-04-19T07:59:30.620Z,70.10
2019-04-19T08:02:17.024Z,65.80
2019-04-19T08:04:58.775Z,63.30
2019-04-19T08:07:49.183Z,63.00
2019-04-19T08:10:34.857Z,60.00
2019-04-19T08:13:33.695Z,59.50
2019-04-19T08:16:25.291Z,57.00
2019-04-19T08:27:23.119Z,54.00
2019-04-19T08:30:02.456Z,55.70
2019-04-19T08:32:42.669Z,52.80
2019-04-19T08:35:31.863Z,52.00
2019-04-19T08:38:25.699Z,52.60
2019-04-19T08:41:21.495Z,52.90
2019-04-19T08:44:15.221Z,54.10
2019-04-19T08:47:19.144Z,50.50
2019-04-19T08:50:13.439Z,50.20
2019-04-19T08:53:20.652Z,53.50
2019-04-19T08:56:10.248Z,51.50
2019-04-19T08:58:54.523Z,51.10
2019-04-19T09:01:50.704Z,50.80
2019-04-19T09:04:34.931Z,51.60
2019-04-19T09:07:46.048Z,50.80
2019-04-19T09:10:30.697Z,48.80
2019-04-19T09:13:19.614Z,50.80
2019-04-19T09:15:57.416Z,51.40
2019-04-19T09:18:50.636Z,48.80
2019-04-19T09:21:32.000Z,47.70
2019-04-19T09:24:12.861Z,46.40
2019-04-19T09:27:10.243Z,47.50
2019-04-19T09:30:05.207Z,48.60
2019-04-19T09:32:37.510Z,49.10
2019-04-19T09:35:31.000Z,48.10
2019-04-19T09:38:29.817Z,50.30
2019-04-19T09:41:13.478Z,48.50
2019-04-19T09:44:05.770Z,51.10
2019-04-19T09:46:44.680Z,49.50
2019-04-19T09:49:48.456Z,50.30
2019-04-19T09:52:45.541Z,49.20
2019-04-19T09:55:37.717Z,49.20
2019-04-19T09:58:21.140Z,48.40
2019-04-19T10:01:04.733Z,47.90
2019-04-19T10:03:58.975Z,48.30
2019-04-19T10:06:42.805Z,48.10
2019-04-19T10:09:30.984Z,47.90
2019-04-19T10:12:19.649Z,48.50
2019-04-19T10:15:11.917Z,47.80
2019-04-19T10:18:00.617Z,46.90
2019-04-19T10:21:05.013Z,46.80
2019-04-19T10:23:54.082Z,46.80
2019-04-19T10:26:50.390Z,48.30
2019-04-19T10:29:41.775Z,44.80
2019-04-19T10:32:30.810Z,46.10
2019-04-19T10:35:19.689Z,46.60
2019-04-19T10:38:09.476Z,44.30
2019-04-19T10:40:57.614Z,45.50
2019-04-19T10:43:59.662Z,45.60
2019-04-19T10:46:35.006Z,44.20
2019-04-19T10:49:33.523Z,47.20
2019-04-19T10:52:21.692Z,46.20
2019-04-19T10:55:10.639Z,47.30
2019-04-19T10:57:59.205Z,46.80
2019-04-19T11:00:49.869Z,48.30
2019-04-19T11:03:37.055Z,46.70
2019-04-19T11:06:25.054Z,46.80
2019-04-19T11:09:14.376Z,46.30
2019-04-19T11:12:03.712Z,47.70
2019-04-19T11:14:52.385Z,47.70
2019-04-19T11:17:41.271Z,46.70
2019-04-19T11:20:38.151Z,47.70
2019-04-19T11:23:21.788Z,46.50
2019-04-19T11:26:10.407Z,47.30
2019-04-19T11:28:58.929Z,46.30
2019-04-19T11:32:10.057Z,48.20
2019-04-19T11:34:58.927Z,46.30
2019-04-19T11:37:47.472Z,47.70
2019-04-19T11:40:35.429Z,48.90
2019-04-19T11:43:23.206Z,45.90
2019-04-19T11:46:11.722Z,46.20
2019-04-19T11:48:59.776Z,45.30
2019-04-19T11:51:48.458Z,48.10
2019-04-19T11:54:36.618Z,47.30
2019-04-19T11:57:34.673Z,46.20
2019-04-19T12:00:43.439Z,45.30
2019-04-19T12:03:32.213Z,44.60
2019-04-19T12:06:20.446Z,45.70
2019-04-19T12:09:12.458Z,44.90
2019-04-19T12:12:03.213Z,42.90
2019-04-19T12:14:50.494Z,43.90
2019-04-19T12:17:38.373Z,43.60
2019-04-19T12:20:26.849Z,43.30
2019-04-19T12:23:15.828Z,43.30
2019-04-19T12:26:05.927Z,42.50
2019-04-19T12:28:55.679Z,43.10
2019-04-19T12:31:43.857Z,44.60
2019-04-19T12:34:32.922Z,42.20
2019-04-19T12:37:20.987Z,42.10
2019-04-19T12:40:10.834Z,42.10
2019-04-19T12:43:00.110Z,41.60
2019-04-19T12:45:51.905Z,41.50
2019-04-19T12:48:41.654Z,41.60
2019-04-19T12:51:30.059Z,41.40
2019-04-19T12:54:18.709Z,41.60
2019-04-19T12:57:07.729Z,41.50
2019-04-19T12:59:55.942Z,42.10
2019-04-19T13:02:49.829Z,40.90
2019-04-19T13:05:41.632Z,41.70
2019-04-19T13:08:29.839Z,42.90
2019-04-19T13:11:18.774Z,41.80
2019-04-19T13:14:07.960Z,41.70
2019-04-19T13:16:56.396Z,42.20
2019-04-19T13:19:45.024Z,41.70
2019-04-19T13:22:34.497Z,43.40
2019-04-19T13:25:23.613Z,42.40
2019-04-19T13:28:13.263Z,41.80
2019-04-19T13:31:02.595Z,42.10
2019-04-19T13:33:51.408Z,41.50
2019-04-19T13:36:58.524Z,41.20
2019-04-19T13:40:06.135Z,41.30
2019-04-19T13:42:56.974Z,41.30
2019-04-19T13:45:44.790Z,41.10
2019-04-19T13:48:32.945Z,40.60
2019-04-19T13:51:22.746Z,41.00
2019-04-19T13:54:12.393Z,41.30
2019-04-19T13:57:01.628Z,41.60
2019-04-19T13:59:57.755Z,41.30
2019-04-19T14:02:39.259Z,41.50
2019-04-19T14:05:27.806Z,41.60
2019-04-19T14:08:17.410Z,42.00
2019-04-19T14:11:05.298Z,42.40
2019-04-19T14:13:55.984Z,42.30
2019-04-19T14:16:43.848Z,42.00
2019-04-19T14:19:31.967Z,42.70
2019-04-19T14:22:21.222Z,41.60
2019-04-19T14:25:09.814Z,42.20
2019-04-19T14:27:57.863Z,42.00
2019-04-19T14:30:45.568Z,41.60
2019-04-19T14:33:34.927Z,41.20
2019-04-19T14:36:22.605Z,42.00
2019-04-19T14:39:10.872Z,41.80
2019-04-19T14:41:59.398Z,42.30
2019-04-19T14:44:47.554Z,41.40
2019-04-19T14:47:35.482Z,41.90
2019-04-19T14:50:23.293Z,41.20
2019-04-19T14:53:12.299Z,41.40
2019-04-19T14:56:00.335Z,42.40
2019-04-19T14:58:48.534Z,42.30
2019-04-19T15:01:58.719Z,41.10
2019-04-19T15:04:51.821Z,40.80
2019-04-19T15:07:40.929Z,41.90
2019-04-19T15:10:29.373Z,41.70
2019-04-19T15:13:17.291Z,40.80
2019-04-19T15:16:06.539Z,41.30
2019-04-19T15:18:55.499Z,41.00
2019-04-19T15:21:43.931Z,41.30
2019-04-19T15:24:32.639Z,40.90
2019-04-19T15:27:21.225Z,40.70
2019-04-19T15:30:12.665Z,40.70
2019-04-19T15:33:00.511Z,40.70
2019-04-19T15:35:48.324Z,40.30
2019-04-19T15:38:37.726Z,40.50
2019-04-19T15:41:26.208Z,40.10
2019-04-19T15:44:14.759Z,40.80
2019-04-19T15:47:04.533Z,40.90
2019-04-19T15:49:51.970Z,41.20
2019-04-19T15:52:40.263Z,40.90
2019-04-19T15:55:28.283Z,40.60
2019-04-19T15:58:16.410Z,40.30
2019-04-19T16:01:08.080Z,39.90
2019-04-19T16:03:58.543Z,40.00
2019-04-19T16:07:05.995Z,40.50
2019-04-19T16:10:08.524Z,40.90
2019-04-19T16:12:53.799Z,40.10
2019-04-19T16:15:42.347Z,41.50
2019-04-19T16:18:29.972Z,40.20
2019-04-19T16:21:28.277Z,40.30
2019-04-19T16:24:07.184Z,40.30
2019-04-19T16:26:55.148Z,40.70
2019-04-19T16:29:48.929Z,40.20
2019-04-19T16:32:32.929Z,40.40
2019-04-19T16:35:22.186Z,41.10
2019-04-19T16:38:10.095Z,40.80
2019-04-19T16:40:58.893Z,40.20
2019-04-19T16:43:47.298Z,40.00
2019-04-19T16:46:37.096Z,39.60
2019-04-19T16:49:26.680Z,39.30
2019-04-19T16:52:16.017Z,38.20
2019-04-19T16:55:09.723Z,37.90
2019-04-19T16:59:01.094Z,36.40
2019-04-19T17:05:24.341Z,34.80
2019-04-19T17:08:13.608Z,32.30
2019-04-19T17:11:44.025Z,32.00
2019-04-19T17:14:47.211Z,32.80
2019-04-19T17:18:08.985Z,32.30
2019-04-19T17:21:57.105Z,33.20
2019-04-19T17:25:01.604Z,32.50
2019-04-19T17:28:32.878Z,33.00
2019-04-19T17:31:27.062Z,32.90
2019-04-19T17:34:16.116Z,32.80
2019-04-19T17:37:04.399Z,32.80
2019-04-19T17:39:52.969Z,33.50
2019-04-19T17:42:42.131Z,34.40
2019-04-19T17:45:30.071Z,36.10
2019-04-19T17:48:18.626Z,37.60
2019-04-19T17:51:06.527Z,39.10
2019-04-19T17:53:54.808Z,39.50
2019-04-19T17:56:42.653Z,40.40
2019-04-19T17:59:32.152Z,41.10
2019-04-19T18:02:21.260Z,41.50
2019-04-19T18:05:09.546Z,42.10
2019-04-19T18:07:58.037Z,42.60
2019-04-19T18:10:49.452Z,43.30
2019-04-19T18:13:37.580Z,43.50
2019-04-19T18:16:25.198Z,43.90
2019-04-19T18:19:16.786Z,44.50
2019-04-19T18:22:13.166Z,45.00
2019-04-19T18:24:58.254Z,45.50
2019-04-19T18:27:48.630Z,45.80
2019-04-19T18:30:34.563Z,45.80
2019-04-19T18:33:40.219Z,45.90
2019-04-19T18:36:29.514Z,46.40
2019-04-19T18:39:18.431Z,46.60
2019-04-19T18:42:07.948Z,47.00
2019-04-19T18:44:59.434Z,46.80
2019-04-19T18:47:45.216Z,47.00
2019-04-19T18:50:39.144Z,47.20
2019-04-19T18:53:34.273Z,47.10
2019-04-19T18:56:18.998Z,47.50
2019-04-19T18:59:11.009Z,47.70
2019-04-19T19:01:55.160Z,47.80
2019-04-19T19:04:42.961Z,48.00
2019-04-19T19:07:31.150Z,48.20
2019-04-19T19:10:25.746Z,48.40
2019-04-19T19:13:09.576Z,49.10
2019-04-19T19:15:58.249Z,48.40
2019-04-19T19:18:50.759Z,48.70
2019-04-19T19:21:40.690Z,48.80
2019-04-19T19:24:44.110Z,49.00
2019-04-19T19:27:20.447Z,49.10
2019-04-19T19:30:04.953Z,49.30
2019-04-19T19:32:56.689Z,49.80
2019-04-19T19:35:49.217Z,49.90
2019-04-19T19:38:35.647Z,50.10
2019-04-19T19:41:38.354Z,50.30
2019-04-19T19:44:23.789Z,50.30
2019-04-19T19:47:44.753Z,50.50
2019-04-19T19:51:05.965Z,50.70
2019-04-19T19:53:16.557Z,50.90
2019-04-19T19:56:15.913Z,50.90
2019-04-19T19:58:41.743Z,51.00
2019-04-19T20:01:34.140Z,51.10
2019-04-19T20:04:15.106Z,51.50
2019-04-19T20:07:07.575Z,51.70
2019-04-19T20:09:56.477Z,52.10
2019-04-19T20:12:47.982Z,52.40
2019-04-19T20:15:34.032Z,52.50
2019-04-19T20:18:24.060Z,52.80
2019-04-19T20:21:11.817Z,53.00
2019-04-19T20:24:10.410Z,53.10
2019-04-19T20:27:01.738Z,53.50
2019-04-19T20:29:35.728Z,53.60
2019-04-19T20:32:24.271Z,54.00
2019-04-19T20:35:16.688Z,54.80
2019-04-19T20:38:07.260Z,55.50
2019-04-19T20:40:57.696Z,56.00
2019-04-19T20:43:56.367Z,56.90
2019-04-19T20:46:31.579Z,57.20
2019-04-19T20:49:19.749Z,58.00
2019-04-19T20:52:17.801Z,58.30
2019-04-19T20:55:17.375Z,58.80
2019-04-19T20:58:10.475Z,58.20
2019-04-19T21:00:52.559Z,58.90
2019-04-19T21:03:41.488Z,59.50
2019-04-19T21:06:34.505Z,59.40
2019-04-19T21:09:24.780Z,59.90
2019-04-19T21:12:16.005Z,59.80
2019-04-19T21:15:10.439Z,60.00
2019-04-19T21:17:50.999Z,60.70
2019-04-19T21:20:38.406Z,62.60
2019-04-19T21:23:30.394Z,64.00
2019-04-19T21:26:20.625Z,64.80
2019-04-19T21:29:05.522Z,65.70
2019-04-19T21:31:55.926Z,66.90
2019-04-19T21:34:43.998Z,67.30
2019-04-19T21:37:38.663Z,68.80
2019-04-19T21:40:28.216Z,69.50
2019-04-19T21:43:12.948Z,70.90
2019-04-19T21:46:01.448Z,72.40
2019-04-19T21:48:49.144Z,72.90
2019-04-19T21:51:38.059Z,74.00
2019-04-19T21:54:26.462Z,75.20
2019-04-19T21:57:18.728Z,76.20
2019-04-19T22:00:11.810Z,77.30
2019-04-19T22:02:55.519Z,78.60
2019-04-19T22:05:43.244Z,80.20
2019-04-19T22:08:34.988Z,81.20
2019-04-19T22:11:20.625Z,81.60
2019-04-19T22:14:08.703Z,82.20
2019-04-19T22:16:56.787Z,82.60
2019-04-19T22:19:45.724Z,82.90
2019-04-19T22:22:35.308Z,83.30
2019-04-19T22:25:39.215Z,83.00
2019-04-19T22:28:13.016Z,83.30
2019-04-19T22:31:03.795Z,83.80
2019-04-19T22:33:50.368Z,84.50
2019-04-19T22:36:43.325Z,84.90
2019-04-19T22:39:27.837Z,85.20
2019-04-19T22:42:16.981Z,85.80
2019-04-19T22:45:09.949Z,86.20
2019-04-19T22:47:55.019Z,86.20
2019-04-19T22:50:44.482Z,86.10
2019-04-19T22:53:37.702Z,86.80
2019-04-19T22:56:29.564Z,87.60
2019-04-19T22:59:15.276Z,87.80
2019-04-19T23:02:16.589Z,88.50
2019-04-19T23:05:06.530Z,88.80
2019-04-19T23:07:58.238Z,89.00
2019-04-19T23:10:52.445Z,89.60
2019-04-19T23:13:35.603Z,90.10
2019-04-19T23:16:23.904Z,90.40
2019-04-19T23:19:14.527Z,90.30
2019-04-19T23:22:01.675Z,90.20
2019-04-19T23:24:56.768Z,90.40
2019-04-19T23:27:48.424Z,90.70
2019-04-19T23:30:32.178Z,91.20
2019-04-19T23:33:21.134Z,90.70
2019-04-19T23:36:12.811Z,91.00
2019-04-19T23:39:03.135Z,90.90
2019-04-19T23:41:47.289Z,91.00
2019-04-19T23:44:35.512Z,91.40
2019-04-19T23:47:24.438Z,91.50
2019-04-19T23:50:12.701Z,91.30
2019-04-19T23:53:02.539Z,91.30
2019-04-19T23:55:50.683Z,91.40
2019-04-19T23:58:41.143Z,91.70
